Time;durP1;ratioP1;P1;durP2;ratioP2;P2;SDS_P1;SDS_P2;PMS_P1;PMS_P2;Temp;Humidity;BMP_temperature;BMP_pressure;BME280_temperature;BME280_humidity;BME280_pressure;Samples;Min_cycle;Max_cycle;Signal;HPM_P1;HPM_P2
2022/07/17 00:00:45;;;;;;;0.00;0.00;;;11.80;99.90;;;;;;5051303;28;20076;-79
2022/07/17 00:03:15;;;;;;;0.03;0.03;;;11.80;99.90;;;;;;5034617;28;20037;-79
2022/07/17 00:05:42;;;;;;;0.00;0.00;;;11.80;99.90;;;;;;5034721;28;20045;-79
2022/07/17 00:08:09;;;;;;;0.00;0.00;;;11.70;99.90;;;;;;5035183;28;20367;-79
2022/07/17 00:10:37;;;;;;;0.00;0.00;;;11.70;99.90;;;;;;5050685;28;20049;-79
2022/07/17 00:13:03;;;;;;;0.00;0.00;;;11.80;99.90;;;;;;5067731;28;20045;-79
2022/07/17 00:15:30;;;;;;;0.10;0.00;;;11.80;99.90;;;;;;5017739;28;20046;-79
2022/07/17 00:17:56;;;;;;;0.45;0.03;;;11.70;99.90;;;;;;5034398;28;20069;-79
2022/07/17 00:20:24;;;;;;;0.00;0.00;;;11.70;99.90;;;;;;5067632;28;20091;-80
2022/07/17 00:22:51;;;;;;;0.00;0.00;;;11.60;99.90;;;;;;5067688;28;20172;-79
2022/07/17 00:25:16;;;;;;;0.00;0.00;;;11.50;99.90;;;;;;5067830;28;20048;-79
2022/07/17 00:27:42;;;;;;;0.00;0.00;;;11.50;99.90;;;;;;5050627;28;20057;-79
2022/07/17 00:30:09;;;;;;;0.00;0.00;;;11.50;99.90;;;;;;5050398;28;20092;-80
2022/07/17 00:32:34;;;;;;;0.00;0.00;;;11.40;99.90;;;;;;5067220;28;20124;-79
2022/07/17 00:35:00;;;;;;;0.00;0.00;;;11.40;99.90;;;;;;5067139;28;20556;-79
2022/07/17 00:37:26;;;;;;;0.00;0.00;;;11.40;99.90;;;;;;5034583;28;20041;-79
2022/07/17 00:39:51;;;;;;;0.00;0.00;;;11.30;99.90;;;;;;5051191;28;20098;-80
2022/07/17 00:42:17;;;;;;;0.00;0.00;;;11.30;99.90;;;;;;5067099;28;20497;-79
2022/07/17 00:44:44;;;;;;;0.00;0.00;;;11.30;99.90;;;;;;5050522;28;20045;-80
2022/07/17 00:47:12;;;;;;;0.00;0.00;;;11.30;99.90;;;;;;5067004;28;20049;-79
2022/07/17 00:49:38;;;;;;;0.00;0.00;;;11.20;99.90;;;;;;5066720;28;20051;-80
2022/07/17 00:52:04;;;;;;;0.00;0.00;;;11.30;99.90;;;;;;5050555;28;20053;-79
2022/07/17 00:54:31;;;;;;;0.00;0.00;;;11.30;99.90;;;;;;5034131;28;20034;-79
2022/07/17 00:56:59;;;;;;;0.00;0.00;;;11.20;99.90;;;;;;5066952;28;20127;-80
2022/07/17 00:59:27;;;;;;;0.00;0.00;;;11.20;99.90;;;;;;5050364;28;20049;-80
2022/07/17 01:01:53;;;;;;;0.10;0.10;;;11.10;99.90;;;;;;5066632;28;20493;-79
2022/07/17 01:04:18;;;;;;;0.00;0.00;;;11.10;99.90;;;;;;5066495;28;20057;-79
2022/07/17 01:06:44;;;;;;;0.00;0.00;;;11.00;99.90;;;;;;5033654;28;20045;-79
2022/07/17 01:09:11;;;;;;;0.00;0.00;;;11.00;99.90;;;;;;5066809;28;20045;-79
2022/07/17 01:11:36;;;;;;;0.00;0.00;;;11.10;99.90;;;;;;5033414;28;20045;-79
2022/07/17 01:14:02;;;;;;;0.00;0.00;;;11.00;99.90;;;;;;5049490;28;20103;-79
2022/07/17 01:16:29;;;;;;;0.00;0.00;;;10.90;99.90;;;;;;5048688;28;20065;-79
2022/07/17 01:18:56;;;;;;;0.00;0.00;;;11.00;99.90;;;;;;5031093;28;20050;-79
2022/07/17 01:21:21;;;;;;;0.73;0.30;;;10.90;99.90;;;;;;5066005;28;20038;-79
2022/07/17 01:23:47;;;;;;;0.00;0.00;;;10.90;99.90;;;;;;5066503;28;20049;-79
2022/07/17 01:26:13;;;;;;;0.00;0.00;;;10.90;99.90;;;;;;5033443;28;20375;-79
2022/07/17 01:28:38;;;;;;;0.00;0.00;;;10.90;99.90;;;;;;5049604;28;20084;-79
2022/07/17 01:31:04;;;;;;;0.00;0.00;;;10.80;99.90;;;;;;5033019;28;20037;-79
2022/07/17 01:33:30;;;;;;;0.00;0.00;;;10.80;99.90;;;;;;5032899;28;20045;-79
2022/07/17 01:35:55;;;;;;;0.00;0.00;;;10.80;99.90;;;;;;5066281;28;20047;-79
2022/07/17 01:38:21;;;;;;;0.00;0.00;;;10.70;99.90;;;;;;5066216;28;20474;-79
2022/07/17 01:40:47;;;;;;;0.00;0.00;;;10.70;99.90;;;;;;5048833;28;20061;-79
2022/07/17 01:43:13;;;;;;;0.00;0.00;;;10.70;99.90;;;;;;5066288;28;20050;-79
2022/07/17 01:49:06;;;;;;;0.50;0.28;;;10.70;99.90;;;;;;5065719;28;20045;-79
2022/07/17 01:51:32;;;;;;;0.00;0.00;;;10.60;99.90;;;;;;5032604;28;20531;-79
2022/07/17 01:53:58;;;;;;;0.00;0.00;;;10.60;99.90;;;;;;5032821;28;20610;-79
2022/07/17 01:56:23;;;;;;;0.00;0.00;;;10.50;99.90;;;;;;5032439;28;20513;-79
2022/07/17 01:58:49;;;;;;;0.00;0.00;;;10.50;99.90;;;;;;5048852;28;20049;-79
2022/07/17 02:01:15;;;;;;;0.00;0.00;;;10.50;99.90;;;;;;5032649;28;20048;-79
2022/07/17 02:03:40;;;;;;;0.00;0.00;;;10.50;99.90;;;;;;5032782;28;20042;-79
2022/07/17 02:06:09;;;;;;;0.00;0.00;;;10.50;99.90;;;;;;5032711;28;20449;-79
2022/07/17 02:08:34;;;;;;;6.32;0.75;;;10.50;99.90;;;;;;5065946;28;20045;-79
2022/07/17 02:11:00;;;;;;;0.00;0.00;;;10.50;99.90;;;;;;5049221;28;20041;-79
2022/07/17 02:13:25;;;;;;;0.00;0.00;;;10.50;99.90;;;;;;5048722;28;20061;-79
2022/07/17 02:15:51;;;;;;;0.00;0.00;;;10.40;99.90;;;;;;5048692;28;20085;-79
2022/07/17 02:18:17;;;;;;;0.00;0.00;;;10.40;99.90;;;;;;5032478;28;20053;-80
2022/07/17 02:20:46;;;;;;;0.00;0.00;;;10.40;99.90;;;;;;5032696;28;20045;-80
2022/07/17 02:23:12;;;;;;;0.00;0.00;;;10.50;99.90;;;;;;5065425;28;20046;-79
2022/07/17 02:25:37;;;;;;;0.03;0.03;;;10.50;99.90;;;;;;5048909;28;20053;-79
2022/07/17 02:28:03;;;;;;;0.00;0.00;;;10.60;99.90;;;;;;5032423;28;20452;-79
2022/07/17 02:30:29;;;;;;;0.00;0.00;;;10.50;99.90;;;;;;5066005;28;20037;-80
2022/07/17 02:32:54;;;;;;;0.00;0.00;;;10.40;99.90;;;;;;5048947;28;20053;-80
2022/07/17 02:35:20;;;;;;;0.22;0.08;;;10.50;99.90;;;;;;5065477;28;20053;-80
2022/07/17 02:37:46;;;;;;;0.00;0.00;;;10.40;99.90;;;;;;5048885;28;20397;-80
2022/07/17 02:40:12;;;;;;;0.00;0.00;;;10.40;99.90;;;;;;5065584;28;20504;-80
2022/07/17 02:42:37;;;;;;;0.00;0.00;;;10.30;99.90;;;;;;5048966;28;20045;-80
2022/07/17 02:45:03;;;;;;;0.00;0.00;;;10.40;99.90;;;;;;5032293;28;20539;-79
2022/07/17 02:47:32;;;;;;;2.20;0.10;;;10.40;99.90;;;;;;5048696;28;20057;-79
2022/07/17 02:49:58;;;;;;;0.00;0.00;;;10.40;99.90;;;;;;5032302;28;20049;-80
2022/07/17 02:52:24;;;;;;;0.00;0.00;;;10.40;99.90;;;;;;5048432;28;20050;-79
2022/07/17 02:54:50;;;;;;;0.00;0.00;;;10.50;99.90;;;;;;5032137;28;20180;-79
2022/07/17 02:57:16;;;;;;;0.00;0.00;;;10.60;99.90;;;;;;5048799;28;20516;-80
2022/07/17 02:59:42;;;;;;;0.00;0.00;;;10.60;99.90;;;;;;5066751;28;20090;-79
2022/07/17 03:02:07;;;;;;;0.00;0.00;;;10.60;99.90;;;;;;5069355;28;20045;-80
2022/07/17 03:04:34;;;;;;;0.00;0.00;;;10.60;99.90;;;;;;5069195;28;20045;-79
2022/07/17 03:06:59;;;;;;;0.00;0.00;;;10.60;99.90;;;;;;5069060;28;20103;-79
2022/07/17 03:09:25;;;;;;;0.00;0.00;;;10.60;99.90;;;;;;5035909;28;20477;-79
2022/07/17 03:11:50;;;;;;;0.00;0.00;;;10.40;99.90;;;;;;5052536;28;20081;-79
2022/07/17 03:14:16;;;;;;;0.00;0.00;;;10.40;99.90;;;;;;5035787;28;20084;-79
2022/07/17 03:16:42;;;;;;;0.00;0.00;;;10.40;99.90;;;;;;5052066;28;20087;-79
2022/07/17 03:19:07;;;;;;;0.10;0.00;;;10.40;99.90;;;;;;5035622;28;20046;-80
2022/07/17 03:21:33;;;;;;;0.00;0.00;;;10.40;99.90;;;;;;5068891;28;20053;-79
2022/07/17 03:23:59;;;;;;;0.00;0.00;;;10.40;99.90;;;;;;5035487;28;20041;-79
2022/07/17 03:26:24;;;;;;;0.00;0.00;;;10.40;99.90;;;;;;5035329;28;20053;-79
2022/07/17 03:28:50;;;;;;;0.00;0.00;;;10.40;99.90;;;;;;5051811;28;20084;-79
2022/07/17 03:31:15;;;;;;;0.00;0.00;;;10.30;99.90;;;;;;5035361;28;20049;-79
2022/07/17 03:33:41;;;;;;;0.00;0.00;;;10.30;99.90;;;;;;5051838;28;20393;-79
2022/07/17 03:36:07;;;;;;;0.00;0.00;;;10.30;99.90;;;;;;5051564;28;20068;-79
2022/07/17 03:38:33;;;;;;;0.00;0.00;;;10.20;99.90;;;;;;5051364;28;20482;-79
2022/07/17 03:40:59;;;;;;;0.00;0.00;;;10.10;99.90;;;;;;5068456;28;20053;-79
2022/07/17 03:43:24;;;;;;;0.00;0.00;;;10.00;99.90;;;;;;5068275;28;20132;-79
2022/07/17 03:45:50;;;;;;;0.00;0.00;;;10.00;99.90;;;;;;5035054;28;20051;-79
2022/07/17 03:48:16;;;;;;;0.00;0.00;;;10.00;99.90;;;;;;5068570;28;20046;-79
2022/07/17 03:50:42;;;;;;;0.00;0.00;;;9.90;99.90;;;;;;5051469;28;20045;-79
2022/07/17 03:53:08;;;;;;;0.00;0.00;;;9.90;99.90;;;;;;5068042;28;20068;-79
2022/07/17 03:55:33;;;;;;;0.00;0.00;;;9.90;99.90;;;;;;5067988;28;20041;-79
2022/07/17 03:57:59;;;;;;;0.00;0.00;;;9.90;99.90;;;;;;5051254;28;20111;-79
2022/07/17 04:00:25;;;;;;;0.00;0.00;;;9.90;99.90;;;;;;5068142;28;20049;-79
2022/07/17 04:02:51;;;;;;;0.22;0.22;;;10.00;99.90;;;;;;5034796;28;20046;-79
2022/07/17 04:05:17;;;;;;;0.00;0.00;;;10.00;99.90;;;;;;5051124;28;20056;-79
2022/07/17 04:07:43;;;;;;;0.00;0.00;;;10.00;99.90;;;;;;5067953;28;20037;-79
2022/07/17 04:10:14;;;;;;;0.00;0.00;;;10.00;99.90;;;;;;5034302;28;20567;-79
2022/07/17 04:12:40;;;;;;;0.00;0.00;;;10.10;99.90;;;;;;5051352;28;20452;-79
2022/07/17 04:15:08;;;;;;;0.00;0.00;;;10.00;99.90;;;;;;5067765;28;20038;-79
2022/07/17 04:17:33;;;;;;;0.00;0.00;;;10.00;99.90;;;;;;5050762;28;20073;-79
2022/07/17 04:19:59;;;;;;;0.00;0.00;;;10.00;99.90;;;;;;5034395;28;20037;-79
2022/07/17 04:22:25;;;;;;;0.00;0.00;;;10.00;99.90;;;;;;5051243;28;20495;-79
2022/07/17 04:24:51;;;;;;;0.00;0.00;;;10.10;99.90;;;;;;5067132;28;20124;-79
2022/07/17 04:27:17;;;;;;;0.00;0.00;;;10.10;99.90;;;;;;5050901;28;20410;-79
2022/07/17 04:29:43;;;;;;;0.00;0.00;;;10.20;99.90;;;;;;5050934;28;20041;-79
2022/07/17 04:32:08;;;;;;;0.00;0.00;;;10.30;99.90;;;;;;5050016;28;20529;-79
2022/07/17 04:34:34;;;;;;;0.00;0.00;;;10.30;99.90;;;;;;5050707;28;20061;-79
2022/07/17 04:37:01;;;;;;;0.00;0.00;;;10.40;99.90;;;;;;5067549;28;20045;-79
2022/07/17 04:39:28;;;;;;;0.00;0.00;;;10.50;99.90;;;;;;5050800;28;20049;-79
2022/07/17 04:41:53;;;;;;;0.00;0.00;;;10.40;99.90;;;;;;5049618;28;20069;-79
2022/07/17 04:44:19;;;;;;;0.00;0.00;;;10.60;99.90;;;;;;5067125;28;20397;-79
2022/07/17 04:46:45;;;;;;;0.00;0.00;;;10.70;99.90;;;;;;5067160;28;20049;-79
2022/07/17 04:49:11;;;;;;;0.00;0.00;;;10.60;99.90;;;;;;5050506;28;20056;-79
2022/07/17 04:51:36;;;;;;;0.00;0.00;;;10.80;99.90;;;;;;5033502;28;20049;-79
2022/07/17 04:54:02;;;;;;;0.00;0.00;;;10.90;99.90;;;;;;5050495;28;20449;-79
2022/07/17 04:56:28;;;;;;;0.00;0.00;;;11.00;99.90;;;;;;5033246;28;20064;-79
2022/07/17 04:58:54;;;;;;;0.00;0.00;;;11.10;99.90;;;;;;5049863;28;20453;-79
2022/07/17 05:01:19;;;;;;;0.00;0.00;;;11.10;99.90;;;;;;5049983;28;20148;-79
2022/07/17 05:03:45;;;;;;;0.00;0.00;;;11.10;99.90;;;;;;5067324;28;20049;-79
2022/07/17 05:06:11;;;;;;;0.00;0.00;;;11.20;99.90;;;;;;5066744;28;20050;-79
2022/07/17 05:08:37;;;;;;;2.83;0.43;;;11.20;99.90;;;;;;5066984;28;20041;-79
2022/07/17 05:11:02;;;;;;;0.00;0.00;;;11.20;99.90;;;;;;5033494;28;20052;-79
2022/07/17 05:13:28;;;;;;;0.00;0.00;;;11.20;99.90;;;;;;5033556;28;20103;-79
2022/07/17 05:15:53;;;;;;;0.05;0.05;;;11.30;99.90;;;;;;5066410;28;20038;-79
2022/07/17 05:18:19;;;;;;;0.00;0.00;;;11.30;99.90;;;;;;5033720;28;20107;-79
2022/07/17 05:20:45;;;;;;;0.00;0.00;;;11.40;99.90;;;;;;5033285;28;20033;-79
2022/07/17 05:23:10;;;;;;;0.00;0.00;;;11.50;99.90;;;;;;5049109;28;20436;-79
2022/07/17 05:25:36;;;;;;;0.00;0.00;;;11.70;99.90;;;;;;5049765;28;20037;-79
2022/07/17 05:28:02;;;;;;;2.40;0.65;;;11.70;99.90;;;;;;5049772;28;20060;-79
2022/07/17 05:30:28;;;;;;;0.00;0.00;;;11.80;99.90;;;;;;5066497;28;20127;-79
2022/07/17 05:32:54;;;;;;;0.00;0.00;;;11.90;99.90;;;;;;5049511;28;20049;-79
2022/07/17 05:35:20;;;;;;;0.00;0.00;;;12.10;99.90;;;;;;5066396;28;20444;-79
2022/07/17 05:37:45;;;;;;;0.00;0.00;;;12.10;99.90;;;;;;5048743;28;20096;-79
2022/07/17 05:40:11;;;;;;;0.00;0.00;;;12.20;99.90;;;;;;5049281;28;20088;-79
2022/07/17 05:42:37;;;;;;;0.00;0.00;;;12.30;99.90;;;;;;5049488;28;20095;-79
2022/07/17 05:45:04;;;;;;;0.00;0.00;;;12.40;99.90;;;;;;5048846;28;20055;-79
2022/07/17 05:47:29;;;;;;;0.00;0.00;;;12.50;99.90;;;;;;5066001;28;20436;-79
2022/07/17 05:49:55;;;;;;;0.00;0.00;;;12.60;99.90;;;;;;5049469;28;20136;-79
2022/07/17 05:52:21;;;;;;;0.00;0.00;;;12.70;99.90;;;;;;5032500;28;20097;-79
2022/07/17 05:54:47;;;;;;;0.00;0.00;;;12.80;99.90;;;;;;5032700;28;20095;-78
2022/07/17 05:57:13;;;;;;;0.00;0.00;;;12.90;99.90;;;;;;5048594;28;20064;-79
2022/07/17 05:59:38;;;;;;;1.98;0.43;;;13.00;99.90;;;;;;5065975;28;20060;-79
2022/07/17 06:02:04;;;;;;;0.00;0.00;;;13.10;99.90;;;;;;5032326;28;20164;-79
2022/07/17 06:04:30;;;;;;;0.00;0.00;;;13.10;99.90;;;;;;5049331;28;20038;-79
2022/07/17 06:06:56;;;;;;;0.00;0.00;;;13.20;99.90;;;;;;5049750;28;20382;-79
2022/07/17 06:09:21;;;;;;;0.00;0.00;;;13.20;99.90;;;;;;5048529;28;20471;-78
2022/07/17 06:11:47;;;;;;;0.00;0.00;;;13.30;99.90;;;;;;5032881;28;20046;-79
2022/07/17 06:14:13;;;;;;;0.00;0.00;;;13.40;99.90;;;;;;5049081;28;20048;-79
2022/07/17 06:16:38;;;;;;;2.05;0.63;;;13.40;99.90;;;;;;5065639;28;20497;-78
2022/07/17 06:19:04;;;;;;;0.00;0.00;;;13.50;99.90;;;;;;5033169;28;20490;-79
2022/07/17 06:21:30;;;;;;;0.00;0.00;;;13.50;99.90;;;;;;5032114;28;20069;-80
2022/07/17 06:23:55;;;;;;;0.00;0.00;;;13.50;99.90;;;;;;5048537;28;20091;-80
2022/07/17 06:26:21;;;;;;;0.00;0.00;;;13.50;99.90;;;;;;5065518;28;20544;-79
2022/07/17 06:28:47;;;;;;;0.10;0.10;;;13.60;99.90;;;;;;5065752;28;20045;-79
2022/07/17 06:31:12;;;;;;;0.00;0.00;;;13.60;99.90;;;;;;5032332;28;20052;-80
2022/07/17 06:33:38;;;;;;;0.00;0.00;;;13.60;99.90;;;;;;5033178;28;20132;-80
2022/07/17 06:36:04;;;;;;;0.00;0.00;;;13.60;99.90;;;;;;5036196;28;20124;-80
2022/07/17 06:38:29;;;;;;;0.00;0.00;;;13.60;99.90;;;;;;5069721;28;20090;-80
2022/07/17 06:40:55;;;;;;;0.00;0.00;;;13.60;99.90;;;;;;5036347;28;20390;-80
2022/07/17 06:43:21;;;;;;;0.47;0.28;;;13.60;99.90;;;;;;5069477;28;20041;-80
2022/07/17 06:45:46;;;;;;;0.00;0.00;;;13.60;99.90;;;;;;5052734;28;20077;-80
2022/07/17 06:48:12;;;;;;;0.00;0.00;;;13.60;99.90;;;;;;5069166;28;20127;-80
2022/07/17 06:50:37;;;;;;;0.00;0.00;;;13.60;99.90;;;;;;5052509;28;20061;-80
2022/07/17 06:53:03;;;;;;;0.00;0.00;;;13.60;99.90;;;;;;5052127;28;20420;-79
2022/07/17 06:55:29;;;;;;;0.00;0.00;;;13.70;99.90;;;;;;5052371;28;20050;-79
2022/07/17 06:57:55;;;;;;;0.13;0.13;;;13.80;99.90;;;;;;5036043;28;20051;-80
2022/07/17 07:00:20;;;;;;;0.00;0.00;;;13.90;99.90;;;;;;5035835;28;20049;-80
2022/07/17 07:02:46;;;;;;;0.00;0.00;;;13.90;99.90;;;;;;5053064;28;20156;-80
2022/07/17 07:05:12;;;;;;;0.00;0.00;;;14.00;99.90;;;;;;5069115;28;20045;-80
2022/07/17 07:07:37;;;;;;;0.00;0.00;;;14.20;99.90;;;;;;5068951;28;20136;-80
2022/07/17 07:10:03;;;;;;;0.00;0.00;;;14.30;99.90;;;;;;5052397;28;20477;-79
2022/07/17 07:12:30;;;;;;;0.00;0.00;;;14.40;99.90;;;;;;5035418;28;20136;-79
2022/07/17 07:14:56;;;;;;;0.00;0.00;;;14.50;99.90;;;;;;5052010;28;20397;-79
2022/07/17 07:17:22;;;;;;;0.00;0.00;;;14.60;99.90;;;;;;5069487;28;20045;-79
2022/07/17 07:19:47;;;;;;;0.00;0.00;;;14.70;99.90;;;;;;5068890;28;20077;-79
2022/07/17 07:22:13;;;;;;;0.00;0.00;;;14.80;99.90;;;;;;5035508;28;20132;-79
2022/07/17 07:24:38;;;;;;;0.00;0.00;;;15.00;99.90;;;;;;5068644;28;20053;-79
2022/07/17 07:27:04;;;;;;;0.00;0.00;;;15.10;99.90;;;;;;5051956;28;20041;-79
2022/07/17 07:29:30;;;;;;;0.10;0.10;;;15.20;99.90;;;;;;5051919;28;20057;-79
2022/07/17 07:31:55;;;;;;;0.00;0.00;;;15.30;99.90;;;;;;5034910;28;20140;-79
2022/07/17 07:34:21;;;;;;;0.00;0.00;;;15.40;99.90;;;;;;5035699;28;20059;-79
2022/07/17 07:36:47;;;;;;;0.00;0.00;;;15.50;99.90;;;;;;5068505;28;20129;-79
2022/07/17 07:39:12;;;;;;;0.00;0.00;;;15.60;99.90;;;;;;5035153;28;20482;-79
2022/07/17 07:41:38;;;;;;;0.00;0.00;;;15.70;99.90;;;;;;5068436;28;20074;-79
2022/07/17 07:44:04;;;;;;;0.00;0.00;;;15.80;99.90;;;;;;5051561;28;20382;-79
2022/07/17 07:46:29;;;;;;;0.00;0.00;;;16.00;99.90;;;;;;5067428;28;20060;-80
2022/07/17 07:48:55;;;;;;;0.00;0.00;;;16.10;99.90;;;;;;5052171;28;20096;-80
2022/07/17 07:51:21;;;;;;;0.00;0.00;;;16.20;99.90;;;;;;5068009;28;20038;-80
2022/07/17 07:53:46;;;;;;;0.00;0.00;;;16.30;99.90;;;;;;5034845;28;20069;-80
2022/07/17 07:56:12;;;;;;;0.00;0.00;;;16.40;99.90;;;;;;5051031;28;20111;-80
2022/07/17 07:58:38;;;;;;;0.00;0.00;;;16.40;99.90;;;;;;5033358;28;20041;-80
2022/07/17 08:01:03;;;;;;;0.00;0.00;;;16.50;99.90;;;;;;5035483;28;20131;-80
2022/07/17 08:03:29;;;;;;;0.47;0.38;;;16.60;99.90;;;;;;5051131;28;20126;-80
2022/07/17 08:05:55;;;;;;;0.00;0.00;;;16.70;99.90;;;;;;5034379;28;20061;-80
2022/07/17 08:08:21;;;;;;;0.00;0.00;;;16.90;99.90;;;;;;5051149;28;20037;-80
2022/07/17 08:10:46;;;;;;;0.00;0.00;;;17.00;99.90;;;;;;5051130;28;20444;-80
2022/07/17 08:13:12;;;;;;;0.00;0.00;;;17.10;99.90;;;;;;5051294;28;20049;-80
2022/07/17 08:15:38;;;;;;;0.00;0.00;;;17.20;99.90;;;;;;5050562;28;20497;-81
2022/07/17 08:18:03;;;;;;;0.00;0.00;;;17.30;99.90;;;;;;5067409;28;20049;-81
2022/07/17 08:20:29;;;;;;;0.00;0.00;;;17.40;99.90;;;;;;5067533;28;20046;-81
2022/07/17 08:22:55;;;;;;;0.00;0.00;;;17.50;99.90;;;;;;5051029;28;20045;-80
2022/07/17 08:25:20;;;;;;;0.00;0.00;;;17.50;99.90;;;;;;5049927;28;20051;-81
2022/07/17 08:27:46;;;;;;;0.00;0.00;;;17.50;99.90;;;;;;5067582;28;20033;-81
2022/07/17 08:30:14;;;;;;;0.00;0.00;;;17.60;99.90;;;;;;5034885;28;20045;-81
2022/07/17 08:32:40;;;;;;;0.00;0.00;;;17.60;99.90;;;;;;5051225;28;20052;-80
2022/07/17 08:35:07;;;;;;;2.60;0.20;;;17.80;99.90;;;;;;5051078;28;20045;-81
2022/07/17 08:37:46;;;;;;;0.00;0.00;;;17.80;99.90;;;;;;5050695;28;20500;-80
2022/07/17 08:40:23;;;;;;;0.00;0.00;;;17.80;99.90;;;;;;5050452;28;20053;-80
2022/07/17 08:42:52;;;;;;;0.00;0.00;;;17.80;99.90;;;;;;5067254;28;20046;-80
2022/07/17 08:45:18;;;;;;;0.13;0.00;;;17.80;99.90;;;;;;5050641;28;20187;-80
2022/07/17 08:47:45;;;;;;;0.00;0.00;;;18.00;99.90;;;;;;5050399;28;20075;-80
2022/07/17 08:50:12;;;;;;;0.00;0.00;;;18.00;99.90;;;;;;5050492;28;20140;-80
2022/07/17 08:52:39;;;;;;;0.20;0.00;;;18.10;99.90;;;;;;5066740;28;20051;-80
2022/07/17 08:55:09;;;;;;;0.00;0.00;;;18.20;99.90;;;;;;5066412;28;20045;-80
2022/07/17 08:57:43;;;;;;;0.00;0.00;;;18.20;99.90;;;;;;5049779;28;20073;-80
2022/07/17 09:00:10;;;;;;;0.45;0.10;;;18.30;99.90;;;;;;5050754;28;20079;-80
2022/07/17 09:02:51;;;;;;;0.00;0.00;;;18.40;99.90;;;;;;5050251;28;20046;-80
2022/07/17 09:05:20;;;;;;;0.30;0.15;;;18.50;99.90;;;;;;5033560;28;20489;-80
2022/07/17 09:07:47;;;;;;;0.17;0.00;;;18.70;99.90;;;;;;5050211;28;20145;-80
2022/07/17 09:10:13;;;;;;;0.00;0.00;;;18.80;99.90;;;;;;5066680;28;20058;-80
2022/07/17 09:12:39;;;;;;;0.00;0.00;;;18.80;99.90;;;;;;5066742;28;20049;-80
2022/07/17 09:15:18;;;;;;;4.57;0.57;;;18.90;99.90;;;;;;5049847;28;20068;-80
2022/07/17 09:17:50;;;;;;;0.00;0.00;;;18.90;99.90;;;;;;5050006;28;20132;-80
2022/07/17 09:20:16;;;;;;;0.00;0.00;;;18.90;99.90;;;;;;5049923;28;20046;-80
2022/07/17 09:22:42;;;;;;;0.00;0.00;;;19.00;99.90;;;;;;5049864;28;20048;-80
2022/07/17 09:25:08;;;;;;;0.00;0.00;;;19.10;99.90;;;;;;5033625;28;20049;-80
2022/07/17 09:27:34;;;;;;;0.00;0.00;;;19.30;99.90;;;;;;5049793;28;20061;-80
2022/07/17 09:30:11;;;;;;;0.00;0.00;;;19.30;99.90;;;;;;5049855;28;20052;-81
2022/07/17 09:32:40;;;;;;;0.10;0.10;;;19.40;99.90;;;;;;5049221;28;20057;-81
2022/07/17 09:35:09;;;;;;;0.00;0.00;;;19.50;99.90;;;;;;5066166;28;20106;-80
2022/07/17 09:37:36;;;;;;;0.00;0.00;;;19.60;99.90;;;;;;5016591;28;20095;-81
2022/07/17 09:40:08;;;;;;;0.00;0.00;;;19.60;99.90;;;;;;5033099;28;20508;-81
2022/07/17 09:42:34;;;;;;;0.00;0.00;;;19.70;99.90;;;;;;5066133;28;20049;-81
2022/07/17 09:45:05;;;;;;;0.00;0.00;;;19.90;99.90;;;;;;5049458;28;20378;-81
2022/07/17 09:47:33;;;;;;;0.00;0.00;;;20.10;99.90;;;;;;5049628;28;20052;-81
2022/07/17 09:50:01;;;;;;;0.00;0.00;;;20.20;99.90;;;;;;5049531;28;20057;-81
2022/07/17 09:52:30;;;;;;;0.00;0.00;;;20.20;98.10;;;;;;5049509;28;20060;-81
2022/07/17 09:54:56;;;;;;;0.00;0.00;;;20.30;99.30;;;;;;5032771;28;20129;-81
2022/07/17 09:57:30;;;;;;;0.00;0.00;;;20.30;98.70;;;;;;5032701;28;20048;-81
2022/07/17 10:00:02;;;;;;;0.00;0.00;;;20.40;97.30;;;;;;5048833;28;20556;-81
2022/07/17 10:02:28;;;;;;;0.00;0.00;;;20.50;97.80;;;;;;5033184;28;20528;-81
2022/07/17 10:04:54;;;;;;;0.00;0.00;;;20.60;97.50;;;;;;5049283;28;20049;-82
2022/07/17 10:07:20;;;;;;;0.00;0.00;;;20.70;97.70;;;;;;5065298;28;20123;-81
2022/07/17 10:09:47;;;;;;;0.00;0.00;;;20.80;95.30;;;;;;5048695;28;20133;-80
2022/07/17 10:12:14;;;;;;;0.00;0.00;;;20.90;95.70;;;;;;5049960;28;20049;-81
2022/07/17 10:14:41;;;;;;;0.00;0.00;;;21.10;98.20;;;;;;5032461;28;20050;-81
2022/07/17 10:17:11;;;;;;;0.00;0.00;;;21.20;94.80;;;;;;5032716;28;20560;-81
2022/07/17 10:19:47;;;;;;;0.10;0.10;;;21.30;96.40;;;;;;5049426;28;20485;-81
2022/07/17 10:22:13;;;;;;;0.35;0.32;;;21.40;95.70;;;;;;5049114;28;20050;-81
2022/07/17 10:24:54;;;;;;;0.00;0.00;;;21.50;95.70;;;;;;5049065;28;20108;-81
2022/07/17 10:27:25;;;;;;;0.00;0.00;;;21.70;95.20;;;;;;5048976;28;20113;-81
2022/07/17 10:30:13;;;;;;;0.30;0.30;;;21.60;92.60;;;;;;5032558;28;20504;-81
2022/07/17 10:32:39;;;;;;;0.00;0.00;;;21.70;93.30;;;;;;5048956;28;20057;-81
2022/07/17 10:35:09;;;;;;;0.00;0.00;;;21.80;94.60;;;;;;5031970;28;20489;-80
2022/07/17 10:37:35;;;;;;;0.00;0.00;;;22.00;94.10;;;;;;5049184;28;20523;-79
2022/07/17 10:40:24;;;;;;;0.00;0.00;;;22.10;94.80;;;;;;5032353;28;20136;-80
2022/07/17 10:42:49;;;;;;;0.00;0.00;;;22.20;94.20;;;;;;5049039;28;20095;-80
2022/07/17 10:45:39;;;;;;;0.00;0.00;;;22.30;92.00;;;;;;5032005;28;20081;-79
2022/07/17 10:48:08;;;;;;;0.00;0.00;;;22.40;91.40;;;;;;5048835;28;20048;-80
2022/07/17 10:50:40;;;;;;;0.00;0.00;;;22.50;91.40;;;;;;5048850;28;20057;-80
2022/07/17 10:53:26;;;;;;;0.00;0.00;;;22.40;91.20;;;;;;5048293;28;20054;-80
2022/07/17 10:56:01;;;;;;;0.00;0.00;;;22.60;90.90;;;;;;5048482;28;20053;-79
2022/07/17 10:58:28;;;;;;;;;;;22.80;93.00;;;;;;5049444;28;20571;-80
2022/07/17 11:01:12;;;;;;;0.00;0.00;;;22.80;91.50;;;;;;5032158;28;19972;-79
2022/07/17 11:03:51;;;;;;;2.72;0.28;;;23.00;91.30;;;;;;5048719;28;20066;-80
2022/07/17 11:06:23;;;;;;;0.00;0.00;;;23.30;90.00;;;;;;5049195;28;20049;-81
2022/07/17 11:09:10;;;;;;;0.00;0.00;;;23.20;89.40;;;;;;5048430;28;20057;-80
2022/07/17 11:11:51;;;;;;;0.00;0.00;;;23.20;85.20;;;;;;5065537;28;20054;-79
2022/07/17 11:14:26;;;;;;;0.00;0.00;;;23.20;87.50;;;;;;5031936;28;20042;-79
2022/07/17 11:16:57;;;;;;;0.25;0.25;;;23.40;86.70;;;;;;5065106;28;20580;-78
2022/07/17 11:19:31;;;;;;;0.00;0.00;;;23.50;88.30;;;;;;5065440;28;20128;-78
2022/07/17 11:22:02;;;;;;;0.00;0.00;;;23.70;90.60;;;;;;5068265;28;20417;-79
2022/07/17 11:24:42;;;;;;;0.00;0.00;;;23.90;90.50;;;;;;5052191;28;20061;-79
2022/07/17 11:27:10;;;;;;;0.00;0.00;;;24.00;88.20;;;;;;5035307;28;20576;-78
2022/07/17 11:29:43;;;;;;;0.00;0.00;;;24.00;87.10;;;;;;5051936;28;20045;-78
2022/07/17 11:32:09;;;;;;;0.00;0.00;;;24.10;86.00;;;;;;5068962;28;20521;-78
2022/07/17 11:34:34;;;;;;;0.00;0.00;;;24.10;81.70;;;;;;5068857;28;20048;-78
2022/07/17 11:37:02;;;;;;;0.30;0.22;;;24.10;78.70;;;;;;5035218;28;20385;-78
2022/07/17 11:39:40;;;;;;;0.00;0.00;;;24.30;85.70;;;;;;5051611;28;20065;-78
2022/07/17 11:42:21;;;;;;;0.00;0.00;;;24.40;83.60;;;;;;5068580;28;20529;-78
2022/07/17 11:44:50;;;;;;;0.00;0.00;;;24.40;81.90;;;;;;5035504;28;20397;-78
2022/07/17 11:47:21;;;;;;;0.08;0.08;;;24.50;81.20;;;;;;5068223;28;20080;-78
2022/07/17 11:49:47;;;;;;;0.00;0.00;;;24.60;79.00;;;;;;5068394;28;20053;-78
2022/07/17 11:52:18;;;;;;;0.00;0.00;;;24.70;85.00;;;;;;5068018;28;20453;-78
2022/07/17 11:54:56;;;;;;;0.00;0.00;;;24.60;78.70;;;;;;5051681;28;20042;-78
2022/07/17 11:57:25;;;;;;;0.00;0.00;;;24.70;80.10;;;;;;5068203;28;20127;-78
2022/07/17 11:59:52;;;;;;;0.00;0.00;;;24.80;78.40;;;;;;5068270;28;20180;-78
2022/07/17 12:02:28;;;;;;;0.00;0.00;;;25.00;78.50;;;;;;5051319;28;20387;-78
2022/07/17 12:04:58;;;;;;;0.00;0.00;;;25.10;76.70;;;;;;5052016;28;20053;-78
2022/07/17 12:07:27;;;;;;;0.30;0.30;;;25.30;78.90;;;;;;5067985;28;20498;-78
2022/07/17 12:09:53;;;;;;;0.00;0.00;;;25.30;75.10;;;;;;5034504;28;20041;-78
2022/07/17 12:12:26;;;;;;;0.00;0.00;;;25.20;77.50;;;;;;5067869;28;20049;-78
2022/07/17 12:14:55;;;;;;;0.00;0.00;;;24.80;71.00;;;;;;5067577;28;20052;-78
2022/07/17 12:17:23;;;;;;;0.00;0.00;;;24.80;80.50;;;;;;5068413;28;20441;-78
2022/07/17 12:19:50;;;;;;;0.00;0.00;;;25.00;82.20;;;;;;5067811;28;20048;-78
2022/07/17 12:22:15;;;;;;;0.00;0.00;;;25.20;74.70;;;;;;5050554;28;20144;-78
2022/07/17 12:24:44;;;;;;;0.00;0.00;;;25.20;73.70;;;;;;5051103;28;20104;-78
2022/07/17 12:27:12;;;;;;;0.00;0.00;;;25.30;76.40;;;;;;5034242;28;20049;-78
2022/07/17 12:29:40;;;;;;;0.00;0.00;;;25.20;74.10;;;;;;5067213;28;20077;-78
2022/07/17 12:32:10;;;;;;;0.00;0.00;;;25.10;74.60;;;;;;5067152;28;20081;-78
2022/07/17 12:34:37;;;;;;;0.00;0.00;;;25.10;75.00;;;;;;5067212;28;20049;-78
2022/07/17 12:37:04;;;;;;;0.00;0.00;;;25.00;73.20;;;;;;5050831;28;20163;-78
2022/07/17 12:39:30;;;;;;;0.00;0.00;;;25.20;75.60;;;;;;5033795;28;20497;-78
2022/07/17 12:41:57;;;;;;;0.00;0.00;;;25.30;72.80;;;;;;5050525;28;20049;-78
2022/07/17 12:44:22;;;;;;;0.00;0.00;;;25.40;75.60;;;;;;5067327;28;20045;-79
2022/07/17 12:46:48;;;;;;;0.00;0.00;;;25.60;72.30;;;;;;5050716;28;20110;-78
2022/07/17 12:49:14;;;;;;;0.10;0.10;;;25.60;72.00;;;;;;5033833;28;20385;-79
2022/07/17 12:51:40;;;;;;;0.00;0.00;;;25.20;69.10;;;;;;5066934;28;20057;-79